Time;durP1;ratioP1;P1;durP2;ratioP2;P2;SDS_P1;SDS_P2;PMS_P1;PMS_P2;Temp;Humidity;BMP_temperature;BMP_pressure;BME280_temperature;BME280_humidity;BME280_pressure;Samples;Min_cycle;Max_cycle;Signal;HPM_P1;HPM_P2
2022/06/20 00:01:47;;;;;;;6.40;1.70;;;13.20;99.90;;;;;;4985004;28;20133;-71
2022/06/20 00:04:17;;;;;;;7.20;1.83;;;13.20;99.90;;;;;;5030097;28;20512;-71
2022/06/20 00:06:43;;;;;;;5.85;1.60;;;13.20;99.90;;;;;;5000355;28;20136;-70
2022/06/20 00:09:10;;;;;;;5.65;1.70;;;13.20;99.90;;;;;;4993635;28;20515;-70
2022/06/20 00:11:41;;;;;;;5.72;1.90;;;13.10;99.90;;;;;;4994700;28;20104;-71
2022/06/20 00:14:12;;;;;;;5.85;1.98;;;13.10;99.90;;;;;;4985152;28;20081;-68
2022/06/20 00:16:38;;;;;;;7.47;1.70;;;13.10;99.90;;;;;;4997188;28;20042;-71
2022/06/20 00:19:05;;;;;;;9.50;2.70;;;13.00;99.90;;;;;;4968775;28;20052;-70
2022/06/20 00:21:30;;;;;;;8.82;1.98;;;13.00;99.90;;;;;;4976496;28;20410;-71
2022/06/20 00:23:56;;;;;;;10.32;2.40;;;12.90;99.90;;;;;;4996269;28;20030;-71
2022/06/20 00:26:22;;;;;;;5.63;2.13;;;12.90;99.90;;;;;;4982464;28;20095;-71
2022/06/20 00:28:48;;;;;;;6.63;2.53;;;12.80;99.90;;;;;;5004994;28;20057;-71
2022/06/20 00:31:14;;;;;;;6.30;2.40;;;12.80;99.90;;;;;;4994136;28;20113;-73
2022/06/20 00:33:41;;;;;;;5.97;2.20;;;12.70;99.90;;;;;;5014270;28;20115;-70
2022/06/20 00:36:07;;;;;;;7.07;2.30;;;12.70;99.90;;;;;;5000415;28;20049;-70
2022/06/20 00:38:35;;;;;;;7.72;2.30;;;12.80;99.90;;;;;;5004202;28;20046;-70
2022/06/20 00:41:09;;;;;;;5.50;2.22;;;12.70;99.90;;;;;;5002552;28;20049;-70
2022/06/20 00:43:50;;;;;;;7.85;2.42;;;12.80;99.90;;;;;;5030411;28;20054;-70
2022/06/20 00:46:53;;;;;;;8.93;2.72;;;12.80;99.90;;;;;;4996435;28;20057;-70
2022/06/20 00:49:31;;;;;;;7.60;2.40;;;12.70;99.90;;;;;;4963450;28;20715;-70
2022/06/20 00:52:22;;;;;;;7.38;2.72;;;12.70;99.90;;;;;;4997295;28;20049;-70
2022/06/20 00:55:24;;;;;;;5.88;2.33;;;12.70;99.90;;;;;;5000626;28;20558;-70
2022/06/20 00:57:55;;;;;;;9.35;2.60;;;12.80;99.90;;;;;;5014652;28;20053;-70
2022/06/20 01:00:25;;;;;;;10.02;2.60;;;12.80;99.90;;;;;;4997379;28;20039;-70
2022/06/20 01:02:53;;;;;;;;;;;12.80;99.90;;;;;;4999669;28;20203;-70
2022/06/20 01:05:30;;;;;;;7.72;3.00;;;12.90;99.90;;;;;;4994349;28;20015;-70
2022/06/20 01:08:05;;;;;;;6.70;2.35;;;12.90;99.90;;;;;;4979189;28;20050;-70
2022/06/20 01:10:42;;;;;;;4.82;2.15;;;12.90;99.90;;;;;;5015381;28;20045;-70
2022/06/20 01:13:14;;;;;;;8.43;2.47;;;12.90;99.90;;;;;;4997767;28;20038;-70
2022/06/20 01:15:42;;;;;;;10.32;3.05;;;13.00;99.90;;;;;;4999039;28;20127;-70
2022/06/20 01:18:27;;;;;;;6.18;2.70;;;12.90;99.90;;;;;;5015403;28;20061;-70
2022/06/20 01:20:55;;;;;;;8.63;3.53;;;13.00;99.90;;;;;;5010322;28;20070;-70
2022/06/20 01:23:35;;;;;;;8.68;3.30;;;13.00;99.90;;;;;;5002710;28;20400;-70
2022/06/20 01:26:18;;;;;;;11.25;3.97;;;13.00;99.90;;;;;;5000956;28;20046;-70
2022/06/20 01:28:48;;;;;;;7.97;2.67;;;12.90;99.90;;;;;;4985343;28;20077;-70
2022/06/20 01:31:17;;;;;;;9.07;3.22;;;12.90;99.90;;;;;;5000409;28;20157;-69
2022/06/20 01:33:46;;;;;;;7.85;2.58;;;12.80;99.90;;;;;;5000134;28;20449;-70
2022/06/20 01:38:59;;;;;;;9.80;3.20;;;12.80;99.90;;;;;;4995754;28;20455;-71
2022/06/20 01:44:11;;;;;;;7.60;3.47;;;12.80;99.90;;;;;;4991650;28;20046;-70
2022/06/20 01:46:38;;;;;;;7.63;2.85;;;12.70;99.90;;;;;;4979052;28;20053;-71
2022/06/20 01:49:10;;;;;;;7.90;2.38;;;12.70;99.90;;;;;;5001559;28;20045;-70
2022/06/20 01:51:40;;;;;;;8.25;3.38;;;12.70;99.90;;;;;;4997005;28;20630;-71
2022/06/20 01:54:08;;;;;;;6.68;2.80;;;12.70;99.90;;;;;;4995556;28;20084;-70
2022/06/20 01:56:35;;;;;;;10.52;3.53;;;12.70;99.90;;;;;;4985822;28;20260;-71
2022/06/20 01:59:06;;;;;;;7.45;3.40;;;12.70;99.90;;;;;;5014559;28;20145;-70
2022/06/20 02:01:37;;;;;;;11.63;3.60;;;12.70;99.90;;;;;;4983200;28;20353;-71
2022/06/20 02:04:14;;;;;;;7.25;3.00;;;12.70;99.90;;;;;;4980340;28;20052;-71
2022/06/20 02:06:40;;;;;;;9.50;3.38;;;12.60;99.90;;;;;;4985435;28;20053;-70
2022/06/20 02:09:07;;;;;;;8.32;3.35;;;12.60;99.90;;;;;;5025835;28;20530;-71
2022/06/20 02:11:35;;;;;;;8.52;3.30;;;12.60;99.90;;;;;;4985490;28;20070;-71
2022/06/20 02:14:12;;;;;;;10.88;3.50;;;12.60;99.90;;;;;;4999532;28;20042;-71
2022/06/20 02:16:42;;;;;;;9.02;3.38;;;12.50;99.90;;;;;;4993386;28;20088;-71
2022/06/20 02:19:11;;;;;;;8.00;3.17;;;12.50;99.90;;;;;;4993255;28;20046;-71
2022/06/20 02:21:38;;;;;;;8.35;3.58;;;12.40;99.90;;;;;;5000348;28;20045;-71
2022/06/20 02:24:14;;;;;;;6.63;3.35;;;12.30;99.90;;;;;;4986790;28;20053;-71
2022/06/20 02:26:42;;;;;;;9.70;3.38;;;12.30;99.90;;;;;;5020985;28;20168;-71
2022/06/20 02:29:20;;;;;;;6.05;3.05;;;12.20;99.90;;;;;;5031046;28;20050;-73
2022/06/20 02:31:46;;;;;;;10.43;3.33;;;12.20;99.90;;;;;;5001143;28;20057;-73
2022/06/20 02:34:12;;;;;;;8.35;4.20;;;12.10;99.90;;;;;;5032545;28;20102;-70
2022/06/20 02:36:38;;;;;;;8.75;3.63;;;12.20;99.90;;;;;;4979422;28;20046;-70
2022/06/20 02:39:04;;;;;;;7.78;3.33;;;12.10;99.90;;;;;;4992210;28;20087;-71
2022/06/20 02:41:31;;;;;;;8.30;3.95;;;12.10;99.90;;;;;;4970147;28;20534;-71
2022/06/20 02:44:04;;;;;;;7.88;3.53;;;12.10;99.90;;;;;;5021028;28;20042;-70
2022/06/20 02:46:33;;;;;;;9.18;3.97;;;12.10;99.90;;;;;;4971896;28;20125;-70
2022/06/20 02:49:03;;;;;;;8.48;4.10;;;12.00;99.90;;;;;;5022495;28;20484;-71
2022/06/20 02:51:35;;;;;;;7.72;4.07;;;12.00;99.90;;;;;;4998126;28;20521;-71
2022/06/20 02:54:03;;;;;;;10.60;4.45;;;12.00;99.90;;;;;;5004907;28;20049;-71
2022/06/20 02:56:37;;;;;;;10.23;4.85;;;11.90;99.90;;;;;;4986100;28;20439;-71
2022/06/20 02:59:12;;;;;;;9.65;3.58;;;11.90;99.90;;;;;;5032503;28;20235;-71
2022/06/20 03:01:53;;;;;;;8.77;3.75;;;11.80;99.90;;;;;;4998874;28;20064;-70
2022/06/20 03:04:21;;;;;;;11.85;4.55;;;11.80;99.90;;;;;;5028010;28;20113;-71
2022/06/20 03:07:00;;;;;;;14.10;4.60;;;11.80;99.90;;;;;;4988084;28;20133;-70
2022/06/20 03:09:38;;;;;;;11.15;4.75;;;11.70;99.90;;;;;;4993793;28;20038;-71
2022/06/20 03:12:06;;;;;;;14.82;4.82;;;11.70;99.90;;;;;;5023653;28;20049;-71
2022/06/20 03:14:36;;;;;;;9.10;4.47;;;11.70;99.90;;;;;;5012564;28;20080;-71
2022/06/20 03:17:05;;;;;;;6.65;3.08;;;11.70;99.90;;;;;;4991536;28;20472;-70
2022/06/20 03:19:35;;;;;;;6.78;3.17;;;11.60;99.90;;;;;;4994072;28;20045;-71
2022/06/20 03:22:05;;;;;;;9.50;4.55;;;11.60;99.90;;;;;;4992698;28;20042;-70
2022/06/20 03:24:31;;;;;;;10.15;5.10;;;11.60;99.90;;;;;;4991618;28;20038;-71
2022/06/20 03:27:00;;;;;;;6.47;3.55;;;11.60;99.90;;;;;;5010068;28;20050;-70
2022/06/20 03:29:26;;;;;;;10.30;3.95;;;11.60;99.90;;;;;;5019517;28;20592;-71
2022/06/20 03:31:53;;;;;;;8.65;3.45;;;11.50;99.90;;;;;;4994487;28;20445;-70
2022/06/20 03:34:21;;;;;;;6.78;3.20;;;11.50;99.90;;;;;;4996941;28;20050;-70
2022/06/20 03:36:48;;;;;;;8.25;3.33;;;11.60;99.90;;;;;;5023705;28;20054;-70
2022/06/20 03:39:18;;;;;;;6.03;2.80;;;11.50;99.90;;;;;;4993258;28;20042;-70
2022/06/20 03:41:45;;;;;;;7.88;2.78;;;11.40;99.90;;;;;;4984211;28;20042;-70
2022/06/20 03:44:17;;;;;;;7.32;3.20;;;11.30;99.90;;;;;;4984316;28;20053;-70
2022/06/20 03:46:49;;;;;;;7.32;2.80;;;11.20;99.90;;;;;;5001573;28;20559;-70
2022/06/20 03:49:30;;;;;;;6.38;2.97;;;11.10;99.90;;;;;;5001251;28;20519;-70
2022/06/20 03:52:03;;;;;;;7.80;2.97;;;11.10;99.90;;;;;;4989825;28;20495;-70
2022/06/20 03:54:45;;;;;;;7.78;3.30;;;11.10;99.90;;;;;;4994551;28;20428;-70
2022/06/20 03:57:34;;;;;;;7.53;3.33;;;11.10;99.90;;;;;;4979293;28;20050;-70
2022/06/20 04:00:13;;;;;;;7.00;2.67;;;11.00;99.90;;;;;;5014784;28;20075;-70
2022/06/20 04:02:50;;;;;;;8.32;3.60;;;10.90;99.90;;;;;;4994760;28;20365;-70
2022/06/20 04:05:22;;;;;;;6.57;3.00;;;10.90;99.90;;;;;;5008743;28;20053;-70
2022/06/20 04:08:11;;;;;;;8.90;3.47;;;10.90;99.90;;;;;;4995844;28;20046;-70
2022/06/20 04:11:03;;;;;;;5.97;2.33;;;11.00;99.90;;;;;;4992486;28;20046;-70
2022/06/20 04:14:08;;;;;;;5.90;2.85;;;11.00;99.90;;;;;;4984232;28;20432;-69
2022/06/20 04:16:34;;;;;;;7.20;3.75;;;11.00;99.90;;;;;;4983027;28;20064;-69
2022/06/20 04:19:21;;;;;;;7.38;3.20;;;11.00;99.90;;;;;;4993820;28;20544;-69
2022/06/20 04:21:55;;;;;;;8.98;3.78;;;11.00;99.90;;;;;;4981957;28;20050;-69
2022/06/20 04:24:27;;;;;;;9.05;3.25;;;11.00;99.90;;;;;;4990105;28;20057;-70
2022/06/20 04:27:11;;;;;;;7.20;3.38;;;11.10;99.90;;;;;;5028463;28;20054;-69
2022/06/20 04:29:55;;;;;;;7.82;3.58;;;11.10;99.90;;;;;;4997339;28;20069;-69
2022/06/20 04:32:24;;;;;;;7.65;4.80;;;11.20;99.90;;;;;;5023505;28;20058;-70
2022/06/20 04:34:58;;;;;;;9.23;5.53;;;11.30;99.90;;;;;;4989669;28;20139;-70
2022/06/20 04:37:44;;;;;;;9.27;4.50;;;11.40;99.90;;;;;;4998503;28;20057;-70
2022/06/20 04:40:13;;;;;;;10.35;4.68;;;11.40;99.90;;;;;;4994715;28;20046;-70
2022/06/20 04:42:45;;;;;;;10.20;5.28;;;11.50;99.90;;;;;;4994638;28;20045;-69
2022/06/20 04:45:26;;;;;;;7.30;4.45;;;11.60;99.90;;;;;;4996880;28;20078;-70
2022/06/20 04:48:01;;;;;;;7.70;4.30;;;11.60;99.90;;;;;;4984561;28;20050;-70
2022/06/20 04:50:30;;;;;;;5.57;3.47;;;11.70;99.90;;;;;;4988055;28;20050;-70
2022/06/20 04:53:00;;;;;;;8.10;3.92;;;11.70;99.90;;;;;;4992387;28;20044;-70
2022/06/20 04:55:27;;;;;;;;;;;11.90;99.90;;;;;;4998354;28;20134;-70
2022/06/20 04:57:58;;;;;;;9.55;4.38;;;11.90;99.90;;;;;;4997335;28;19927;-70
2022/06/20 05:00:27;;;;;;;;;;;12.00;99.90;;;;;;5026460;28;20104;-70
2022/06/20 05:02:56;;;;;;;9.45;4.80;;;12.00;99.90;;;;;;4990919;28;19922;-70
2022/06/20 05:05:25;;;;;;;9.52;4.25;;;12.00;99.90;;;;;;4978070;28;20537;-70
2022/06/20 05:07:51;;;;;;;7.78;4.10;;;12.00;99.90;;;;;;4964330;28;20101;-70
2022/06/20 05:10:46;;;;;;;8.18;3.85;;;12.10;99.90;;;;;;5015034;28;20065;-71
2022/06/20 05:13:18;;;;;;;9.52;4.38;;;12.10;99.90;;;;;;4998471;28;20132;-70
2022/06/20 05:15:49;;;;;;;9.32;3.60;;;12.20;99.90;;;;;;4998777;28;20438;-70
2022/06/20 05:18:24;;;;;;;9.50;3.95;;;12.30;99.90;;;;;;4997252;28;20509;-70
2022/06/20 05:20:54;;;;;;;7.90;4.07;;;12.30;99.90;;;;;;5030359;28;20054;-70
2022/06/20 05:23:30;;;;;;;8.25;4.20;;;12.40;99.90;;;;;;5004208;28;20046;-70
2022/06/20 05:25:59;;;;;;;9.38;4.38;;;12.40;99.90;;;;;;5023180;28;20046;-71
2022/06/20 05:28:26;;;;;;;7.53;3.60;;;12.50;99.90;;;;;;4994710;28;20381;-70
2022/06/20 05:30:52;;;;;;;12.90;4.10;;;12.60;99.90;;;;;;4999185;28;20055;-70
2022/06/20 05:33:34;;;;;;;9.30;4.53;;;12.60;99.90;;;;;;4991603;28;20518;-71
2022/06/20 05:36:44;;;;;;;7.70;4.45;;;12.70;99.90;;;;;;5009470;28;20080;-70
2022/06/20 05:39:19;;;;;;;11.45;4.00;;;12.80;99.90;;;;;;4986262;28;20054;-70
2022/06/20 05:41:47;;;;;;;8.10;3.60;;;12.90;99.90;;;;;;5016401;28;20046;-70
2022/06/20 05:44:13;;;;;;;9.20;3.90;;;13.00;99.90;;;;;;5023272;28;20105;-70
2022/06/20 05:46:53;;;;;;;8.75;3.72;;;13.10;99.90;;;;;;4965067;28;20050;-70
2022/06/20 05:49:33;;;;;;;9.43;4.40;;;13.20;99.90;;;;;;4994374;28;20445;-70
2022/06/20 05:52:01;;;;;;;8.27;4.20;;;13.20;99.90;;;;;;5011525;28;21044;-70
2022/06/20 05:54:48;;;;;;;8.68;4.10;;;13.30;99.90;;;;;;4976792;28;20396;-70
2022/06/20 05:57:18;;;;;;;8.68;3.70;;;13.40;99.90;;;;;;4986891;28;20049;-70
2022/06/20 05:59:51;;;;;;;9.00;4.25;;;13.50;99.90;;;;;;4992866;28;20183;-70
2022/06/20 06:02:28;;;;;;;10.38;4.07;;;13.60;99.90;;;;;;5008607;28;20060;-71
2022/06/20 06:05:09;;;;;;;13.73;5.05;;;13.60;99.90;;;;;;5025483;28;20116;-71
2022/06/20 06:07:59;;;;;;;11.57;4.13;;;13.70;99.90;;;;;;4994065;28;20062;-71
2022/06/20 06:10:51;;;;;;;12.40;4.20;;;13.80;99.90;;;;;;4992207;28;20590;-71
2022/06/20 06:13:42;;;;;;;12.00;4.85;;;14.00;99.90;;;;;;4994074;28;20042;-71
2022/06/20 06:19:33;;;;;;;12.07;4.90;;;14.20;99.90;;;;;;5016127;28;20331;-70
2022/06/20 06:22:03;;;;;;;10.80;4.32;;;14.30;99.90;;;;;;5007477;28;20084;-70
2022/06/20 06:24:32;;;;;;;11.55;4.50;;;14.40;99.90;;;;;;5000023;28;20112;-71
2022/06/20 06:27:01;;;;;;;11.27;5.13;;;14.50;99.90;;;;;;4995456;28;20057;-70
2022/06/20 06:29:36;;;;;;;10.32;4.72;;;14.50;99.90;;;;;;5032710;28;20050;-70
2022/06/20 06:32:12;;;;;;;12.00;4.60;;;14.50;99.90;;;;;;5016693;28;20233;-70
2022/06/20 06:34:58;;;;;;;12.52;4.50;;;14.50;99.90;;;;;;5010605;28;20045;-71
2022/06/20 06:37:33;;;;;;;12.32;5.43;;;14.60;99.90;;;;;;4997493;28;20046;-71
2022/06/20 06:40:24;;;;;;;12.75;5.20;;;14.60;99.90;;;;;;4993431;28;20080;-70
2022/06/20 06:42:54;;;;;;;11.32;4.50;;;14.80;99.90;;;;;;4997282;28;20072;-70
2022/06/20 06:45:24;;;;;;;11.18;3.97;;;14.90;99.90;;;;;;4984496;28;20081;-70
2022/06/20 06:47:59;;;;;;;10.40;3.90;;;15.00;99.90;;;;;;5016695;28;20061;-70
2022/06/20 06:50:41;;;;;;;12.15;4.35;;;15.20;99.90;;;;;;5003737;28;20049;-70
2022/06/20 06:53:14;;;;;;;9.93;4.53;;;15.30;99.90;;;;;;5028189;28;20511;-70
2022/06/20 06:55:42;;;;;;;7.65;3.50;;;15.50;99.90;;;;;;4993107;28;20513;-70
2022/06/20 06:58:19;;;;;;;10.38;4.25;;;15.60;99.90;;;;;;5028717;28;20074;-73
2022/06/20 07:00:52;;;;;;;11.73;4.03;;;15.70;99.90;;;;;;4999144;28;20038;-70
2022/06/20 07:03:24;;;;;;;9.27;3.80;;;15.70;99.90;;;;;;4982786;28;20089;-71
2022/06/20 07:06:01;;;;;;;9.85;4.38;;;15.80;99.90;;;;;;4998284;28;20053;-70
2022/06/20 07:08:32;;;;;;;12.07;4.13;;;15.80;99.90;;;;;;5018963;28;20041;-70
2022/06/20 07:11:10;;;;;;;12.45;4.32;;;15.70;99.90;;;;;;5010744;28;20457;-70
2022/06/20 07:13:50;;;;;;;8.57;3.22;;;15.60;99.90;;;;;;5028860;28;20056;-70
2022/06/20 07:16:40;;;;;;;8.15;3.90;;;15.50;99.90;;;;;;4984992;28;20058;-70
2022/06/20 07:19:08;;;;;;;10.77;4.20;;;15.40;99.90;;;;;;4985460;28;20041;-71
2022/06/20 07:21:37;;;;;;;9.23;4.25;;;15.30;99.90;;;;;;4994907;28;20061;-70
2022/06/20 07:24:08;;;;;;;8.18;3.88;;;15.20;99.90;;;;;;4993480;28;20053;-71
2022/06/20 07:26:41;;;;;;;11.57;3.83;;;15.10;99.90;;;;;;4997877;28;20049;-71
2022/06/20 07:29:15;;;;;;;10.27;3.22;;;15.00;99.90;;;;;;5020129;28;20132;-71
2022/06/20 07:31:47;;;;;;;10.68;3.88;;;15.00;99.90;;;;;;5001330;28;20053;-70
2022/06/20 07:34:32;;;;;;;9.85;3.50;;;15.20;99.90;;;;;;5001914;28;20050;-70
2022/06/20 07:37:16;;;;;;;10.35;3.40;;;15.50;99.90;;;;;;4994951;28;20046;-70
2022/06/20 07:39:50;;;;;;;9.15;3.70;;;15.80;99.90;;;;;;5010652;28;20054;-71
2022/06/20 07:42:27;;;;;;;8.55;3.13;;;16.00;99.90;;;;;;5040128;28;20511;-71
2022/06/20 07:45:01;;;;;;;8.65;3.33;;;15.90;99.90;;;;;;4983050;28;20049;-71
2022/06/20 07:47:34;;;;;;;11.20;3.67;;;15.90;99.90;;;;;;5001281;28;20053;-72
2022/06/20 07:50:11;;;;;;;7.63;2.80;;;16.10;99.90;;;;;;4997078;28;20410;-71
2022/06/20 07:52:42;;;;;;;10.00;3.40;;;16.40;99.90;;;;;;4988309;28;20108;-71
2022/06/20 07:55:13;;;;;;;11.75;3.78;;;16.70;99.90;;;;;;5012612;28;20061;-71
2022/06/20 07:57:48;;;;;;;7.55;3.45;;;16.90;99.90;;;;;;4999348;28;20053;-71
2022/06/20 08:00:17;;;;;;;8.95;3.20;;;16.90;99.90;;;;;;4983487;28;20562;-70
2022/06/20 08:02:43;;;;;;;7.57;2.90;;;16.70;99.90;;;;;;5005446;28;20445;-71
2022/06/20 08:05:33;;;;;;;8.07;3.00;;;16.60;99.90;;;;;;5010802;28;20049;-71
2022/06/20 08:07:59;;;;;;;;;;;16.40;99.90;;;;;;4993769;28;20326;-71
2022/06/20 08:10:41;;;;;;;8.65;2.67;;;16.40;99.90;;;;;;5008636;28;20443;-72
2022/06/20 08:13:28;;;;;;;8.57;3.33;;;16.70;99.90;;;;;;4991301;28;20052;-71
2022/06/20 08:16:28;;;;;;;11.90;3.47;;;17.00;99.90;;;;;;4995230;28;20046;-71
2022/06/20 08:18:53;;;;;;;10.50;3.50;;;17.20;99.90;;;;;;5013334;28;20792;-71
2022/06/20 08:21:56;;;;;;;8.60;2.38;;;17.20;99.90;;;;;;4995898;28;20142;-71
2022/06/20 08:24:31;;;;;;;8.88;2.83;;;17.10;99.90;;;;;;4997795;28;20057;-71
2022/06/20 08:27:10;;;;;;;7.95;2.83;;;17.10;99.90;;;;;;4998909;28;20268;-71
2022/06/20 08:29:42;;;;;;;6.00;2.28;;;17.10;99.90;;;;;;4997626;28;20053;-71
2022/06/20 08:32:24;;;;;;;6.53;2.45;;;17.10;99.90;;;;;;5028699;28;20049;-71
2022/06/20 08:35:14;;;;;;;6.97;2.60;;;16.90;99.90;;;;;;5034911;28;20037;-72
2022/06/20 08:37:54;;;;;;;8.35;3.03;;;16.70;99.90;;;;;;5002763;28;20088;-71
2022/06/20 08:40:52;;;;;;;6.97;2.30;;;16.70;99.90;;;;;;5001233;28;20408;-71
2022/06/20 08:43:45;;;;;;;6.57;2.80;;;17.00;99.90;;;;;;5011506;28;20077;-72
2022/06/20 08:46:29;;;;;;;8.52;3.22;;;17.40;99.90;;;;;;5000487;28;20400;-70
2022/06/20 08:49:15;;;;;;;10.30;2.70;;;17.60;99.90;;;;;;5002421;28;20372;-70
2022/06/20 08:52:09;;;;;;;7.57;2.03;;;17.50;99.90;;;;;;4998519;28;20128;-70
2022/06/20 08:55:05;;;;;;;5.00;1.88;;;17.40;99.90;;;;;;5007405;28;20054;-71
2022/06/20 08:57:33;;;;;;;6.57;2.05;;;17.40;99.90;;;;;;4981856;28;20076;-71
2022/06/20 09:00:26;;;;;;;4.57;1.40;;;17.70;99.90;;;;;;4991190;28;20053;-71
2022/06/20 09:03:28;;;;;;;5.82;1.65;;;18.10;99.90;;;;;;4994072;28;20120;-70
2022/06/20 09:06:13;;;;;;;7.45;1.52;;;18.30;99.90;;;;;;4996326;28;20054;-71
2022/06/20 09:09:16;;;;;;;4.75;1.40;;;18.50;99.90;;;;;;5009626;28;20087;-71
2022/06/20 09:11:57;;;;;;;6.28;1.48;;;18.60;99.90;;;;;;4999401;28;20104;-71
2022/06/20 09:14:44;;;;;;;6.78;1.42;;;18.50;99.90;;;;;;4999263;28;20050;-71
2022/06/20 09:17:10;;;;;;;5.82;1.98;;;18.30;99.90;;;;;;5035578;28;20115;-71
2022/06/20 09:20:00;;;;;;;6.80;2.15;;;18.20;99.90;;;;;;4998411;28;20042;-70
2022/06/20 09:22:25;;;;;;;4.50;1.70;;;18.30;99.90;;;;;;4993091;28;20068;-70
2022/06/20 09:24:51;;;;;;;6.35;1.90;;;18.30;99.90;;;;;;4998275;28;20493;-71
2022/06/20 09:27:31;;;;;;;5.07;1.50;;;18.40;99.90;;;;;;4998096;28;20046;-70
2022/06/20 09:30:05;;;;;;;4.28;1.70;;;18.60;99.90;;;;;;5000244;28;20053;-71
2022/06/20 09:32:52;;;;;;;6.78;1.70;;;18.60;99.30;;;;;;4993550;28;20034;-70
2022/06/20 09:35:42;;;;;;;3.67;1.45;;;18.40;98.10;;;;;;5001209;28;20045;-70
2022/06/20 09:38:20;;;;;;;5.80;2.33;;;18.20;98.80;;;;;;4997237;28;20045;-70
2022/06/20 09:41:01;;;;;;;4.70;1.88;;;17.90;99.90;;;;;;5016117;28;20443;-70
2022/06/20 09:43:47;;;;;;;4.45;1.98;;;17.90;99.90;;;;;;5033919;28;20096;-70
2022/06/20 09:46:31;;;;;;;6.35;2.85;;;17.90;99.90;;;;;;5032940;28;20524;-70
2022/06/20 09:49:10;;;;;;;9.35;2.30;;;17.90;99.90;;;;;;5001765;28;20072;-70
2022/06/20 09:51:36;;;;;;;4.88;1.77;;;18.00;99.90;;;;;;4998402;28;20501;-71
2022/06/20 09:54:23;;;;;;;5.35;2.22;;;18.00;99.90;;;;;;5000383;28;20052;-70
2022/06/20 09:57:11;;;;;;;4.55;1.52;;;18.00;99.90;;;;;;5031212;28;20053;-70
2022/06/20 09:59:58;;;;;;;5.97;1.83;;;18.10;99.90;;;;;;5040162;28;20620;-71
2022/06/20 10:02:45;;;;;;;5.82;1.70;;;18.10;99.90;;;;;;5012916;28;20103;-70
2022/06/20 10:05:25;;;;;;;7.53;2.25;;;18.20;99.90;;;;;;5015794;28;20409;-69
2022/06/20 10:08:25;;;;;;;7.63;2.17;;;18.40;99.90;;;;;;4989287;28;20503;-71
2022/06/20 10:10:54;;;;;;;4.60;1.67;;;18.80;99.90;;;;;;5013178;28;20405;-71
2022/06/20 10:13:48;;;;;;;5.75;1.70;;;19.10;99.90;;;;;;4997049;28;20073;-72
2022/06/20 10:16:25;;;;;;;9.38;1.75;;;19.10;99.90;;;;;;5011552;28;20046;-71
2022/06/20 10:19:04;;;;;;;7.03;1.60;;;19.40;99.90;;;;;;5024240;28;20197;-71
2022/06/20 10:21:50;;;;;;;6.60;2.20;;;19.80;99.90;;;;;;5016124;28;20053;-71
2022/06/20 10:24:40;;;;;;;7.07;1.83;;;19.90;98.90;;;;;;5021575;28;20050;-72
2022/06/20 10:27:19;;;;;;;7.25;1.80;;;19.70;94.50;;;;;;4989821;28;20065;-71
2022/06/20 10:30:09;;;;;;;4.57;1.52;;;19.30;97.20;;;;;;5033217;28;20063;-71
2022/06/20 10:33:02;;;;;;;5.88;1.70;;;19.10;97.80;;;;;;4989878;28;20567;-71
2022/06/20 10:35:59;;;;;;;8.70;2.28;;;19.00;99.90;;;;;;5027684;28;20058;-71
2022/06/20 10:38:46;;;;;;;6.20;1.75;;;19.10;99.90;;;;;;4989639;28;20092;-71
2022/06/20 10:41:27;;;;;;;5.00;1.52;;;19.50;98.20;;;;;;4994379;28;20085;-70
2022/06/20 10:44:22;;;;;;;6.00;1.33;;;19.60;96.80;;;;;;5008361;28;20069;-71
2022/06/20 10:47:06;;;;;;;3.55;1.45;;;19.40;98.00;;;;;;5036156;28;20060;-71
2022/06/20 10:49:50;;;;;;;6.80;1.63;;;19.10;99.30;;;;;;4997957;28;20957;-70
2022/06/20 10:52:55;;;;;;;7.63;1.88;;;18.90;99.20;;;;;;4991665;28;20038;-71
2022/06/20 10:55:24;;;;;;;6.13;1.83;;;19.00;99.90;;;;;;4993810;28;20050;-70
2022/06/20 10:58:05;;;;;;;5.45;1.70;;;19.10;99.10;;;;;;4997154;28;20129;-71
2022/06/20 11:00:44;;;;;;;5.50;1.85;;;19.00;95.90;;;;;;4999182;28;20051;-71
2022/06/20 11:03:28;;;;;;;8.35;1.67;;;18.90;94.20;;;;;;4999426;28;20058;-70
2022/06/20 11:06:20;;;;;;;5.88;1.50;;;18.90;94.70;;;;;;5016050;28;20061;-71
2022/06/20 11:09:15;;;;;;;5.20;1.42;;;19.20;95.40;;;;;;5022645;28;20050;-70
2022/06/20 11:12:02;;;;;;;5.65;1.50;;;19.40;95.00;;;;;;5031234;28;20064;-70
2022/06/20 11:14:55;;;;;;;6.10;1.48;;;19.70;93.00;;;;;;4990290;28;20092;-70
2022/06/20 11:17:51;;;;;;;6.15;1.60;;;19.70;97.10;;;;;;4998528;28;20096;-71
2022/06/20 11:20:55;;;;;;;6.57;2.17;;;19.50;95.50;;;;;;5029268;28;20037;-71
2022/06/20 11:23:33;;;;;;;4.90;1.70;;;19.30;95.30;;;;;;5004553;28;20504;-70
2022/06/20 11:26:08;;;;;;;3.67;1.30;;;19.50;94.50;;;;;;5016303;28;20050;-70
2022/06/20 11:28:45;;;;;;;3.67;1.70;;;19.80;94.80;;;;;;4993602;28;20734;-71
2022/06/20 11:31:20;;;;;;;4.28;1.60;;;19.90;94.60;;;;;;5013644;28;20560;-70
2022/06/20 11:34:06;;;;;;;6.22;1.70;;;19.80;95.90;;;;;;4998073;28;20034;-71
2022/06/20 11:36:56;;;;;;;6.63;2.38;;;19.80;95.70;;;;;;5000155;28;20417;-71
2022/06/20 11:39:28;;;;;;;5.97;1.80;;;19.60;94.00;;;;;;5028203;28;20059;-69
2022/06/20 11:42:22;;;;;;;9.55;2.38;;;19.30;94.40;;;;;;4984542;28;20554;-70
2022/06/20 11:44:48;;;;;;;8.10;1.98;;;19.20;95.10;;;;;;5014061;28;20050;-70
2022/06/20 11:47:33;;;;;;;6.38;1.77;;;19.20;96.90;;;;;;4983924;28;20969;-71
2022/06/20 11:50:17;;;;;;;5.88;1.77;;;19.20;97.20;;;;;;5012106;28;20077;-70
2022/06/20 11:53:09;;;;;;;7.70;1.83;;;19.40;96.20;;;;;;5004792;28;20077;-70
2022/06/20 11:55:46;;;;;;;8.32;2.00;;;19.20;95.10;;;;;;4994485;28;20516;-70
2022/06/20 11:58:19;;;;;;;7.88;1.83;;;19.20;96.60;;;;;;5023353;28;20092;-71
2022/06/20 12:01:07;;;;;;;5.07;2.13;;;19.10;99.00;;;;;;5029184;28;20088;-70
2022/06/20 12:03:51;;;;;;;10.82;2.25;;;19.10;99.60;;;;;;5025420;28;20129;-70
2022/06/20 12:06:33;;;;;;;6.50;2.30;;;19.10;96.40;;;;;;4980505;28;20042;-71
2022/06/20 12:09:05;;;;;;;6.03;2.17;;;19.00;96.70;;;;;;5030164;28;20041;-70
2022/06/20 12:11:30;;;;;;;7.15;2.05;;;18.90;97.20;;;;;;5013261;28;20514;-70
2022/06/20 12:14:14;;;;;;;6.68;2.28;;;18.90;97.70;;;;;;4995269;28;20042;-70
2022/06/20 12:17:05;;;;;;;6.35;1.85;;;19.00;99.90;;;;;;4996748;28;20400;-71
2022/06/20 12:25:41;;;;;;;4.75;1.85;;;19.50;94.50;;;;;;5013898;28;20061;-71
2022/06/20 12:28:50;;;;;;;8.32;2.35;;;19.80;94.20;;;;;;5011516;28;20128;-70
2022/06/20 12:31:22;;;;;;;5.63;2.05;;;19.90;95.00;;;;;;5014490;28;20055;-72
2022/06/20 12:33:54;;;;;;;6.97;1.70;;;19.70;92.70;;;;;;4994330;28;20042;-71
2022/06/20 12:36:34;;;;;;;4.53;1.67;;;19.40;92.60;;;;;;4991924;28;20048;-70
2022/06/20 12:39:19;;;;;;;4.68;1.75;;;19.20;93.40;;;;;;4982412;28;20400;-70
2022/06/20 12:41:57;;;;;;;7.70;1.95;;;19.30;97.00;;;;;;4990738;28;20065;-70
2022/06/20 12:44:25;;;;;;;5.78;2.05;;;19.40;97.90;;;;;;4996479;28;20052;-70
2022/06/20 12:47:00;;;;;;;4.35;1.80;;;19.60;99.90;;;;;;4984192;28;20174;-70
2022/06/20 12:49:54;;;;;;;6.32;1.95;;;19.90;96.60;;;;;;4996271;28;20054;-71
2022/06/20 12:52:39;;;;;;;7.15;2.13;;;20.10;98.70;;;;;;4993765;28;20574;-70
2022/06/20 12:55:17;;;;;;;5.20;2.25;;;20.40;95.90;;;;;;5002834;28;20121;-71
2022/06/20 12:57:57;;;;;;;5.68;2.10;;;20.50;93.80;;;;;;4999030;28;20076;-71
2022/06/20 13:00:36;;;;;;;5.97;1.75;;;20.70;94.70;;;;;;4997489;28;20700;-70
2022/06/20 13:03:49;;;;;;;5.57;2.10;;;20.80;92.60;;;;;;4996272;28;20077;-71
2022/06/20 13:06:24;;;;;;;7.32;1.80;;;21.00;91.00;;;;;;5017026;28;20058;-71
2022/06/20 13:09:20;;;;;;;5.88;2.10;;;21.00;94.90;;;;;;5016898;28;20049;-70
2022/06/20 13:11:52;;;;;;;4.32;1.83;;;21.10;93.10;;;;;;4994414;28;20393;-70
2022/06/20 13:14:24;;;;;;;4.10;1.85;;;20.90;90.60;;;;;;5028529;28;20057;-70
2022/06/20 13:17:01;;;;;;;4.55;1.58;;;20.80;90.70;;;;;;4999532;28;20554;-70
2022/06/20 13:19:58;;;;;;;5.75;1.52;;;20.80;84.70;;;;;;5034081;28;20046;-71
2022/06/20 13:22:44;;;;;;;5.60;1.50;;;20.70;80.50;;;;;;4995604;28;20058;-71
2022/06/20 13:25:21;;;;;;;3.65;1.38;;;20.30;79.90;;;;;;4997777;28;20041;-71
2022/06/20 13:28:04;;;;;;;3.05;1.52;;;20.10;87.30;;;;;;4996000;28;20297;-71
2022/06/20 13:31:06;;;;;;;5.55;1.65;;;20.20;83.80;;;;;;4983755;28;20066;-70
2022/06/20 13:33:45;;;;;;;3.47;1.45;;;20.30;92.00;;;;;;5010394;28;20046;-70
2022/06/20 13:36:17;;;;;;;4.47;1.70;;;20.40;90.90;;;;;;5016223;28;20041;-70
2022/06/20 13:39:21;;;;;;;7.53;1.90;;;20.50;88.40;;;;;;4982958;28;20078;-71
2022/06/20 13:42:01;;;;;;;4.25;1.95;;;20.50;91.20;;;;;;4984316;28;20050;-71
2022/06/20 13:45:10;;;;;;;4.72;1.70;;;20.40;90.40;;;;;;4992724;28;20049;-71
2022/06/20 13:48:15;;;;;;;8.55;1.80;;;20.20;87.50;;;;;;4992100;28;20054;-69
2022/06/20 13:51:14;;;;;;;6.45;1.70;;;20.00;92.00;;;;;;5015923;28;20105;-70
2022/06/20 13:53:50;;;;;;;5.43;1.85;;;19.80;91.70;;;;;;4990652;28;20077;-70
2022/06/20 13:56:31;;;;;;;7.15;1.92;;;19.60;91.80;;;;;;4987036;28;20046;-70